Česky Dansk Deutsch English Español Suomi Français Magyar Italiano Nederlands norsk Polski Português svenska Türkçe

 

Het Weer

Sishen (Zuid Afrika)

11:00, 27 september 2009 (GMT)

NWNNE
WE
SWSSE
Home            
Sishen Vryburg Tsabong Upington, Up-Apt Kimberley, Kim-Apt Mafikeng Intl. Ad De Aar De Aar Lichtenburg Bloemfontein, Bloemfontein Airport Welkom Klerksdorp Jwaneng Potchefstroom Tshane Middelburg Rustenburg Seretse Khama International Airport Maseru / Moshoeshoe Maseru-Mia Fraserburg Aliwal North Keetmanshoop

Om een weerknop op uw website of weblog te plaatsen, copieer onderstaande code en plak die in uw pagina. In het eerste vakje staat HTML-code, in het tweede vakje UBB-code.


Add to Google

Details

Wind speed:3 bf, 8 kn, 4.1 m/s, 9.2 miles/h, 14.8 km/h
Wind direction:NW, 320°
Het Weer:moderate
moderate
moderate
Temperature:31°C, 88°F
Atmospheric pressure:1019 hPa, 764.3 mmHg, 30.09 inHg, 1.006 atm
METAR:FASS 271100Z AUTO 32008KT 31/M00 Q1019

Snelkoppelingen

Actuele weersinformatie van de hele wereld. Voeg locaties toe met het plus (+) symbool. Deze snelkoppelingen kunnen worden toegevoegd aan Google.

Lid van de Technetium groep

website free tracking
StatCounter NetStat W3C Validator

17-12-2017 04:51:07
astro.technetium.be money.technetium.be phote.technetium.be tafeltennistafel.technetium.be www.ligfiets.net